Portada
METAR-TAF:

METAR-TAF

Aeroports :

Lannion, França

latitud: 48-45N, longitud: 003-28W, altitud: 89 m

Observació

L'informe es va fer fa 31 minuts, a les 13:30 UTC
Vent 7 kt del Oest/Nord-Oest, variant entre Oest/Sud-Oest i Nord/Nord-Oest
Temperatura 23°C
Humitat 61%
Pressió 1022 hPa
Visibilitat 10 km o més
Escasses núvols a una alçada de 2900 ft
Cel ennuvolat a una alçada de 5400 ft

METAR: LFRO 211330Z AUTO 29007KT 240V340 9999 FEW029 BKN054 23/15 Q1022

Hora: 16:01 (14:01 UTC)


TAF: manca

Observacions i pronòstics meteorològics de més de 4000 aeroports (METAR i TAF).

Les estacions disponibles són els punts grocs i vermells al mapa.

Posi el ratolí al punt desitjat per veure el nom de l'estació.

Feu clic per veure les observacions i els pronòstics meteorològics.

Per canviar el mapa: feu clic els botons verds amb una creu de color negre per apropar; al botó verd amb un guió per allunyar la imatge; o en les fletxes verdes per a mapes adjacents.


METAR-TAF: